sensor_id;sensor_type;location;lat;lon;timestamp;P1;durP1;ratioP1;P2;durP2;ratioP2
63276;SDS011;49403;51.046;13.780;2023-04-25T00:00:26;5.57;;;3.80;;
63276;SDS011;49403;51.046;13.780;2023-04-25T00:00:57;5.55;;;3.70;;
63276;SDS011;49403;51.046;13.780;2023-04-25T00:01:28;4.80;;;3.90;;
63276;SDS011;49403;51.046;13.780;2023-04-25T00:01:59;4.93;;;3.53;;
63276;SDS011;49403;51.046;13.780;2023-04-25T00:02:30;5.15;;;3.40;;
63276;SDS011;49403;51.046;13.780;2023-04-25T00:03:02;4.15;;;3.47;;
63276;SDS011;49403;51.046;13.780;2023-04-25T00:03:35;4.18;;;3.30;;
63276;SDS011;49403;51.046;13.780;2023-04-25T00:04:06;4.93;;;3.50;;
63276;SDS011;49403;51.046;13.780;2023-04-25T00:04:37;4.43;;;3.50;;
63276;SDS011;49403;51.046;13.780;2023-04-25T00:05:08;4.47;;;3.58;;
63276;SDS011;49403;51.046;13.780;2023-04-25T00:05:40;4.80;;;3.50;;
63276;SDS011;49403;51.046;13.780;2023-04-25T00:06:11;5.75;;;3.50;;
63276;SDS011;49403;51.046;13.780;2023-04-25T00:06:42;5.85;;;3.60;;
63276;SDS011;49403;51.046;13.780;2023-04-25T00:07:13;3.88;;;3.35;;
63276;SDS011;49403;51.046;13.780;2023-04-25T00:07:45;4.07;;;3.42;;
63276;SDS011;49403;51.046;13.780;2023-04-25T00:08:16;5.28;;;3.40;;
63276;SDS011;49403;51.046;13.780;2023-04-25T00:08:47;7.63;;;3.63;;
63276;SDS011;49403;51.046;13.780;2023-04-25T00:09:18;5.32;;;3.70;;
63276;SDS011;49403;51.046;13.780;2023-04-25T00:09:50;4.55;;;3.50;;
63276;SDS011;49403;51.046;13.780;2023-04-25T00:10:21;4.55;;;3.30;;
63276;SDS011;49403;51.046;13.780;2023-04-25T00:10:52;6.35;;;3.67;;
63276;SDS011;49403;51.046;13.780;2023-04-25T00:11:23;5.22;;;3.55;;
63276;SDS011;49403;51.046;13.780;2023-04-25T00:11:54;5.15;;;3.50;;
63276;SDS011;49403;51.046;13.780;2023-04-25T00:12:25;4.45;;;3.40;;
63276;SDS011;49403;51.046;13.780;2023-04-25T00:12:58;6.18;;;3.30;;
63276;SDS011;49403;51.046;13.780;2023-04-25T00:13:32;4.30;;;3.58;;
63276;SDS011;49403;51.046;13.780;2023-04-25T00:14:03;4.03;;;3.47;;
63276;SDS011;49403;51.046;13.780;2023-04-25T00:14:35;5.50;;;3.67;;
63276;SDS011;49403;51.046;13.780;2023-04-25T00:15:06;4.85;;;3.60;;
63276;SDS011;49403;51.046;13.780;2023-04-25T00:15:37;4.03;;;3.22;;
63276;SDS011;49403;51.046;13.780;2023-04-25T00:16:08;4.40;;;3.40;;
63276;SDS011;49403;51.046;13.780;2023-04-25T00:16:40;6.60;;;3.45;;
63276;SDS011;49403;51.046;13.780;2023-04-25T00:17:14;5.22;;;3.58;;
63276;SDS011;49403;51.046;13.780;2023-04-25T00:17:45;3.75;;;3.40;;
63276;SDS011;49403;51.046;13.780;2023-04-25T00:18:16;6.93;;;3.60;;
63276;SDS011;49403;51.046;13.780;2023-04-25T00:18:47;4.45;;;3.50;;
63276;SDS011;49403;51.046;13.780;2023-04-25T00:19:21;4.07;;;3.40;;
63276;SDS011;49403;51.046;13.780;2023-04-25T00:19:52;6.97;;;3.70;;
63276;SDS011;49403;51.046;13.780;2023-04-25T00:20:23;4.50;;;3.53;;
63276;SDS011;49403;51.046;13.780;2023-04-25T00:20:55;5.28;;;3.75;;
63276;SDS011;49403;51.046;13.780;2023-04-25T00:21:25;7.00;;;3.70;;
63276;SDS011;49403;51.046;13.780;2023-04-25T00:21:58;5.32;;;3.72;;
63276;SDS011;49403;51.046;13.780;2023-04-25T00:22:29;4.47;;;3.40;;
63276;SDS011;49403;51.046;13.780;2023-04-25T00:23:00;5.40;;;3.63;;
63276;SDS011;49403;51.046;13.780;2023-04-25T00:23:31;5.45;;;3.85;;
63276;SDS011;49403;51.046;13.780;2023-04-25T00:24:02;3.90;;;3.15;;
63276;SDS011;49403;51.046;13.780;2023-04-25T00:24:33;5.32;;;3.30;;
63276;SDS011;49403;51.046;13.780;2023-04-25T00:25:05;5.78;;;3.40;;
63276;SDS011;49403;51.046;13.780;2023-04-25T00:25:36;5.78;;;3.30;;
63276;SDS011;49403;51.046;13.780;2023-04-25T00:26:07;3.75;;;3.35;;
63276;SDS011;49403;51.046;13.780;2023-04-25T00:26:39;7.22;;;4.85;;
63276;SDS011;49403;51.046;13.780;2023-04-25T00:27:10;4.38;;;3.38;;
63276;SDS011;49403;51.046;13.780;2023-04-25T00:27:41;4.35;;;3.63;;
63276;SDS011;49403;51.046;13.780;2023-04-25T00:28:12;5.65;;;3.30;;
63276;SDS011;49403;51.046;13.780;2023-04-25T00:28:43;6.15;;;3.53;;
63276;SDS011;49403;51.046;13.780;2023-04-25T00:29:15;4.80;;;3.70;;
63276;SDS011;49403;51.046;13.780;2023-04-25T00:29:46;4.47;;;3.30;;
63276;SDS011;49403;51.046;13.780;2023-04-25T00:30:17;5.35;;;3.83;;
63276;SDS011;49403;51.046;13.780;2023-04-25T00:30:48;4.70;;;3.80;;
63276;SDS011;49403;51.046;13.780;2023-04-25T00:31:19;4.80;;;3.60;;
63276;SDS011;49403;51.046;13.780;2023-04-25T00:31:50;6.22;;;3.60;;
63276;SDS011;49403;51.046;13.780;2023-04-25T00:32:21;7.80;;;3.83;;
63276;SDS011;49403;51.046;13.780;2023-04-25T00:32:52;5.93;;;3.50;;
63276;SDS011;49403;51.046;13.780;2023-04-25T00:33:23;5.43;;;3.60;;
63276;SDS011;49403;51.046;13.780;2023-04-25T00:33:54;3.72;;;3.20;;
63276;SDS011;49403;51.046;13.780;2023-04-25T00:34:25;5.97;;;3.58;;
63276;SDS011;49403;51.046;13.780;2023-04-25T00:34:56;4.75;;;3.80;;
63276;SDS011;49403;51.046;13.780;2023-04-25T00:35:28;4.57;;;3.55;;
63276;SDS011;49403;51.046;13.780;2023-04-25T00:35:59;5.53;;;3.60;;
63276;SDS011;49403;51.046;13.780;2023-04-25T00:36:30;5.10;;;3.70;;
63276;SDS011;49403;51.046;13.780;2023-04-25T00:37:01;4.68;;;3.70;;
63276;SDS011;49403;51.046;13.780;2023-04-25T00:37:32;4.15;;;3.50;;
63276;SDS011;49403;51.046;13.780;2023-04-25T00:38:03;5.90;;;3.60;;
63276;SDS011;49403;51.046;13.780;2023-04-25T00:38:34;5.28;;;3.50;;
63276;SDS011;49403;51.046;13.780;2023-04-25T00:39:05;5.50;;;3.75;;
63276;SDS011;49403;51.046;13.780;2023-04-25T00:39:37;5.38;;;3.80;;
63276;SDS011;49403;51.046;13.780;2023-04-25T00:40:08;5.85;;;4.00;;
63276;SDS011;49403;51.046;13.780;2023-04-25T00:40:40;4.55;;;3.60;;
63276;SDS011;49403;51.046;13.780;2023-04-25T00:41:13;4.43;;;3.63;;
63276;SDS011;49403;51.046;13.780;2023-04-25T00:41:45;5.82;;;3.72;;
63276;SDS011;49403;51.046;13.780;2023-04-25T00:42:16;5.63;;;3.70;;
63276;SDS011;49403;51.046;13.780;2023-04-25T00:42:47;4.82;;;3.92;;
63276;SDS011;49403;51.046;13.780;2023-04-25T00:43:19;5.07;;;3.38;;
63276;SDS011;49403;51.046;13.780;2023-04-25T00:43:50;4.38;;;3.53;;
63276;SDS011;49403;51.046;13.780;2023-04-25T00:44:22;4.43;;;3.65;;
63276;SDS011;49403;51.046;13.780;2023-04-25T00:44:55;3.85;;;3.40;;
63276;SDS011;49403;51.046;13.780;2023-04-25T00:45:27;4.95;;;3.55;;
63276;SDS011;49403;51.046;13.780;2023-04-25T00:46:02;4.97;;;3.80;;
63276;SDS011;49403;51.046;13.780;2023-04-25T00:46:34;5.72;;;3.78;;
63276;SDS011;49403;51.046;13.780;2023-04-25T00:47:06;4.63;;;3.63;;
63276;SDS011;49403;51.046;13.780;2023-04-25T00:47:37;5.50;;;3.85;;
63276;SDS011;49403;51.046;13.780;2023-04-25T00:48:10;8.93;;;4.00;;
63276;SDS011;49403;51.046;13.780;2023-04-25T00:48:42;10.02;;;4.20;;
63276;SDS011;49403;51.046;13.780;2023-04-25T00:49:13;6.65;;;3.85;;
63276;SDS011;49403;51.046;13.780;2023-04-25T00:49:46;4.63;;;3.65;;
63276;SDS011;49403;51.046;13.780;2023-04-25T00:50:18;6.28;;;4.05;;
63276;SDS011;49403;51.046;13.780;2023-04-25T00:50:51;5.25;;;3.90;;
63276;SDS011;49403;51.046;13.780;2023-04-25T00:51:24;6.55;;;4.10;;
63276;SDS011;49403;51.046;13.780;2023-04-25T00:51:56;6.97;;;3.90;;
63276;SDS011;49403;51.046;13.780;2023-04-25T00:52:27;5.53;;;3.85;;
63276;SDS011;49403;51.046;13.780;2023-04-25T00:52:58;9.13;;;4.10;;
63276;SDS011;49403;51.046;13.780;2023-04-25T00:53:30;6.18;;;3.80;;
63276;SDS011;49403;51.046;13.780;2023-04-25T00:54:02;7.75;;;3.85;;
63276;SDS011;49403;51.046;13.780;2023-04-25T00:54:33;5.90;;;3.80;;
63276;SDS011;49403;51.046;13.780;2023-04-25T00:55:04;6.07;;;4.00;;
63276;SDS011;49403;51.046;13.780;2023-04-25T00:55:36;7.88;;;3.80;;
63276;SDS011;49403;51.046;13.780;2023-04-25T00:56:07;6.55;;;3.90;;
63276;SDS011;49403;51.046;13.780;2023-04-25T00:56:39;5.93;;;4.00;;
63276;SDS011;49403;51.046;13.780;2023-04-25T00:57:10;6.47;;;4.05;;
63276;SDS011;49403;51.046;13.780;2023-04-25T00:57:41;4.85;;;3.85;;
63276;SDS011;49403;51.046;13.780;2023-04-25T00:58:13;5.80;;;4.10;;
63276;SDS011;49403;51.046;13.780;2023-04-25T00:58:44;5.32;;;4.05;;
63276;SDS011;49403;51.046;13.780;2023-04-25T00:59:15;6.05;;;4.07;;
63276;SDS011;49403;51.046;13.780;2023-04-25T00:59:48;8.02;;;4.15;;
63276;SDS011;49403;51.046;13.780;2023-04-25T01:00:23;5.22;;;4.30;;
63276;SDS011;49403;51.046;13.780;2023-04-25T01:00:54;5.93;;;3.88;;
63276;SDS011;49403;51.046;13.780;2023-04-25T01:01:26;5.85;;;4.20;;
63276;SDS011;49403;51.046;13.780;2023-04-25T01:01:58;6.40;;;4.15;;
63276;SDS011;49403;51.046;13.780;2023-04-25T01:02:29;8.48;;;4.28;;
63276;SDS011;49403;51.046;13.780;2023-04-25T01:03:02;7.05;;;4.18;;
63276;SDS011;49403;51.046;13.780;2023-04-25T01:03:34;4.80;;;3.92;;
63276;SDS011;49403;51.046;13.780;2023-04-25T01:04:10;7.90;;;4.53;;
63276;SDS011;49403;51.046;13.780;2023-04-25T01:04:41;6.57;;;4.30;;
63276;SDS011;49403;51.046;13.780;2023-04-25T01:05:13;7.43;;;4.95;;
63276;SDS011;49403;51.046;13.780;2023-04-25T01:05:44;5.32;;;4.10;;
63276;SDS011;49403;51.046;13.780;2023-04-25T01:06:16;7.10;;;4.28;;
63276;SDS011;49403;51.046;13.780;2023-04-25T01:06:47;7.47;;;4.13;;
63276;SDS011;49403;51.046;13.780;2023-04-25T01:07:18;6.38;;;4.22;;
63276;SDS011;49403;51.046;13.780;2023-04-25T01:07:49;8.30;;;4.57;;
63276;SDS011;49403;51.046;13.780;2023-04-25T01:08:21;6.45;;;4.70;;
63276;SDS011;49403;51.046;13.780;2023-04-25T01:08:57;7.22;;;4.30;;
63276;SDS011;49403;51.046;13.780;2023-04-25T01:09:30;6.82;;;4.25;;
63276;SDS011;49403;51.046;13.780;2023-04-25T01:10:02;6.72;;;4.28;;
63276;SDS011;49403;51.046;13.780;2023-04-25T01:10:34;6.45;;;4.40;;
63276;SDS011;49403;51.046;13.780;2023-04-25T01:11:05;5.38;;;4.40;;
63276;SDS011;49403;51.046;13.780;2023-04-25T01:11:37;7.10;;;4.18;;
63276;SDS011;49403;51.046;13.780;2023-04-25T01:12:10;6.22;;;4.30;;
63276;SDS011;49403;51.046;13.780;2023-04-25T01:12:42;6.93;;;4.30;;
63276;SDS011;49403;51.046;13.780;2023-04-25T01:13:13;7.53;;;4.45;;
63276;SDS011;49403;51.046;13.780;2023-04-25T01:13:47;6.80;;;4.20;;
63276;SDS011;49403;51.046;13.780;2023-04-25T01:14:18;6.38;;;4.15;;
63276;SDS011;49403;51.046;13.780;2023-04-25T01:14:50;6.43;;;4.20;;
63276;SDS011;49403;51.046;13.780;2023-04-25T01:15:21;6.63;;;4.20;;
63276;SDS011;49403;51.046;13.780;2023-04-25T01:15:52;7.13;;;4.07;;
63276;SDS011;49403;51.046;13.780;2023-04-25T01:16:24;5.93;;;4.20;;
63276;SDS011;49403;51.046;13.780;2023-04-25T01:16:56;6.82;;;4.60;;
63276;SDS011;49403;51.046;13.780;2023-04-25T01:17:30;6.07;;;4.30;;
63276;SDS011;49403;51.046;13.780;2023-04-25T01:18:01;9.70;;;4.60;;
63276;SDS011;49403;51.046;13.780;2023-04-25T01:18:37;5.80;;;4.25;;
63276;SDS011;49403;51.046;13.780;2023-04-25T01:19:10;6.00;;;4.40;;
63276;SDS011;49403;51.046;13.780;2023-04-25T01:19:42;7.07;;;4.38;;
63276;SDS011;49403;51.046;13.780;2023-04-25T01:20:19;6.53;;;4.43;;
63276;SDS011;49403;51.046;13.780;2023-04-25T01:20:53;6.35;;;4.43;;
63276;SDS011;49403;51.046;13.780;2023-04-25T01:21:25;7.10;;;4.40;;
63276;SDS011;49403;51.046;13.780;2023-04-25T01:21:59;6.78;;;4.40;;
63276;SDS011;49403;51.046;13.780;2023-04-25T01:22:34;9.00;;;4.32;;
63276;SDS011;49403;51.046;13.780;2023-04-25T01:23:05;5.60;;;4.20;;
63276;SDS011;49403;51.046;13.780;2023-04-25T01:23:39;8.05;;;4.50;;
63276;SDS011;49403;51.046;13.780;2023-04-25T01:24:12;7.40;;;4.68;;
63276;SDS011;49403;51.046;13.780;2023-04-25T01:24:44;7.03;;;4.70;;
63276;SDS011;49403;51.046;13.780;2023-04-25T01:25:15;7.38;;;4.20;;
63276;SDS011;49403;51.046;13.780;2023-04-25T01:25:47;6.40;;;4.50;;
63276;SDS011;49403;51.046;13.780;2023-04-25T01:26:19;6.00;;;4.50;;
63276;SDS011;49403;51.046;13.780;2023-04-25T01:26:53;6.55;;;4.20;;
63276;SDS011;49403;51.046;13.780;2023-04-25T01:27:26;6.07;;;4.20;;
63276;SDS011;49403;51.046;13.780;2023-04-25T01:27:58;6.70;;;4.43;;
63276;SDS011;49403;51.046;13.780;2023-04-25T01:28:30;7.18;;;4.50;;
63276;SDS011;49403;51.046;13.780;2023-04-25T01:29:05;7.97;;;4.45;;
63276;SDS011;49403;51.046;13.780;2023-04-25T01:29:38;6.97;;;4.63;;
63276;SDS011;49403;51.046;13.780;2023-04-25T01:30:09;7.60;;;4.28;;
63276;SDS011;49403;51.046;13.780;2023-04-25T01:30:41;8.18;;;4.70;;
63276;SDS011;49403;51.046;13.780;2023-04-25T01:31:13;7.63;;;4.65;;
63276;SDS011;49403;51.046;13.780;2023-04-25T01:31:48;9.48;;;5.00;;
63276;SDS011;49403;51.046;13.780;2023-04-25T01:32:22;5.60;;;4.35;;
63276;SDS011;49403;51.046;13.780;2023-04-25T01:32:54;5.22;;;4.28;;
63276;SDS011;49403;51.046;13.780;2023-04-25T01:33:26;6.22;;;4.53;;
63276;SDS011;49403;51.046;13.780;2023-04-25T01:33:57;7.18;;;4.80;;
63276;SDS011;49403;51.046;13.780;2023-04-25T01:34:28;6.85;;;4.60;;
63276;SDS011;49403;51.046;13.780;2023-04-25T01:35:00;7.82;;;4.60;;
63276;SDS011;49403;51.046;13.780;2023-04-25T01:35:32;8.65;;;5.00;;
63276;SDS011;49403;51.046;13.780;2023-04-25T01:36:04;7.97;;;4.90;;
63276;SDS011;49403;51.046;13.780;2023-04-25T01:36:36;7.40;;;4.60;;
63276;SDS011;49403;51.046;13.780;2023-04-25T01:37:10;6.68;;;4.35;;
63276;SDS011;49403;51.046;13.780;2023-04-25T01:37:42;9.30;;;4.60;;
63276;SDS011;49403;51.046;13.780;2023-04-25T01:38:14;6.45;;;4.65;;
63276;SDS011;49403;51.046;13.780;2023-04-25T01:38:45;9.23;;;4.97;;
63276;SDS011;49403;51.046;13.780;2023-04-25T01:39:22;10.85;;;4.57;;
63276;SDS011;49403;51.046;13.780;2023-04-25T01:39:55;6.25;;;4.57;;
63276;SDS011;49403;51.046;13.780;2023-04-25T01:40:26;8.07;;;4.70;;
63276;SDS011;49403;51.046;13.780;2023-04-25T01:41:01;7.30;;;4.60;;
63276;SDS011;49403;51.046;13.780;2023-04-25T01:41:32;8.38;;;4.63;;
63276;SDS011;49403;51.046;13.780;2023-04-25T01:42:06;7.50;;;4.75;;
63276;SDS011;49403;51.046;13.780;2023-04-25T01:42:41;7.03;;;4.32;;
63276;SDS011;49403;51.046;13.780;2023-04-25T01:43:14;8.48;;;4.57;;
63276;SDS011;49403;51.046;13.780;2023-04-25T01:43:45;8.40;;;5.05;;
63276;SDS011;49403;51.046;13.780;2023-04-25T01:44:16;7.50;;;4.45;;
63276;SDS011;49403;51.046;13.780;2023-04-25T01:44:51;8.88;;;4.63;;
63276;SDS011;49403;51.046;13.780;2023-04-25T01:45:25;6.30;;;4.55;;
63276;SDS011;49403;51.046;13.780;2023-04-25T01:45:56;9.18;;;4.88;;
63276;SDS011;49403;51.046;13.780;2023-04-25T01:46:28;10.65;;;4.55;;
63276;SDS011;49403;51.046;13.780;2023-04-25T01:46:59;8.82;;;4.78;;
63276;SDS011;49403;51.046;13.780;2023-04-25T01:47:31;7.22;;;4.70;;
63276;SDS011;49403;51.046;13.780;2023-04-25T01:48:04;5.50;;;4.40;;
63276;SDS011;49403;51.046;13.780;2023-04-25T01:48:38;9.02;;;4.55;;
63276;SDS011;49403;51.046;13.780;2023-04-25T01:49:13;8.13;;;4.45;;
63276;SDS011;49403;51.046;13.780;2023-04-25T01:49:44;6.68;;;4.47;;
63276;SDS011;49403;51.046;13.780;2023-04-25T01:50:17;9.20;;;4.82;;
63276;SDS011;49403;51.046;13.780;2023-04-25T01:50:52;8.63;;;4.70;;
63276;SDS011;49403;51.046;13.780;2023-04-25T01:51:26;6.72;;;4.53;;
63276;SDS011;49403;51.046;13.780;2023-04-25T01:51:57;7.03;;;4.55;;
63276;SDS011;49403;51.046;13.780;2023-04-25T01:52:31;7.60;;;4.70;;
63276;SDS011;49403;51.046;13.780;2023-04-25T01:53:03;6.80;;;4.63;;
63276;SDS011;49403;51.046;13.780;2023-04-25T01:53:35;7.60;;;4.40;;
63276;SDS011;49403;51.046;13.780;2023-04-25T01:54:07;6.78;;;4.43;;
63276;SDS011;49403;51.046;13.780;2023-04-25T01:54:40;12.65;;;5.45;;
63276;SDS011;49403;51.046;13.780;2023-04-25T01:55:14;7.70;;;4.70;;
63276;SDS011;49403;51.046;13.780;2023-04-25T01:55:46;6.75;;;4.53;;
63276;SDS011;49403;51.046;13.780;2023-04-25T01:56:17;7.13;;;4.55;;
63276;SDS011;49403;51.046;13.780;2023-04-25T01:56:51;8.43;;;4.57;;
63276;SDS011;49403;51.046;13.780;2023-04-25T01:57:23;8.32;;;4.63;;
63276;SDS011;49403;51.046;13.780;2023-04-25T01:57:54;8.80;;;4.47;;
63276;SDS011;49403;51.046;13.780;2023-04-25T01:58:26;6.97;;;4.72;;
63276;SDS011;49403;51.046;13.780;2023-04-25T01:59:00;6.45;;;4.70;;
63276;SDS011;49403;51.046;13.780;2023-04-25T01:59:32;7.45;;;4.70;;
63276;SDS011;49403;51.046;13.780;2023-04-25T02:00:06;11.77;;;4.97;;
63276;SDS011;49403;51.046;13.780;2023-04-25T02:00:39;8.80;;;4.60;;
63276;SDS011;49403;51.046;13.780;2023-04-25T02:01:13;9.95;;;4.68;;
63276;SDS011;49403;51.046;13.780;2023-04-25T02:01:45;6.50;;;4.50;;
63276;SDS011;49403;51.046;13.780;2023-04-25T02:02:16;11.02;;;4.60;;
63276;SDS011;49403;51.046;13.780;2023-04-25T02:02:50;7.38;;;4.68;;
63276;SDS011;49403;51.046;13.780;2023-04-25T02:03:23;9.93;;;4.47;;
63276;SDS011;49403;51.046;13.780;2023-04-25T02:03:54;11.05;;;4.85;;
63276;SDS011;49403;51.046;13.780;2023-04-25T02:04:26;8.18;;;4.40;;
63276;SDS011;49403;51.046;13.780;2023-04-25T02:05:00;11.88;;;4.70;;
63276;SDS011;49403;51.046;13.780;2023-04-25T02:05:35;6.97;;;4.90;;
63276;SDS011;49403;51.046;13.780;2023-04-25T02:06:07;6.55;;;4.60;;
63276;SDS011;49403;51.046;13.780;2023-04-25T02:06:41;6.28;;;4.32;;
63276;SDS011;49403;51.046;13.780;2023-04-25T02:07:15;7.55;;;4.65;;
63276;SDS011;49403;51.046;13.780;2023-04-25T02:07:47;7.30;;;4.78;;
63276;SDS011;49403;51.046;13.780;2023-04-25T02:08:21;14.73;;;4.90;;
63276;SDS011;49403;51.046;13.780;2023-04-25T02:08:57;10.32;;;4.60;;
63276;SDS011;49403;51.046;13.780;2023-04-25T02:09:28;7.70;;;4.22;;
63276;SDS011;49403;51.046;13.780;2023-04-25T02:10:02;8.52;;;4.70;;
63276;SDS011;49403;51.046;13.780;2023-04-25T02:10:34;8.57;;;4.60;;
63276;SDS011;49403;51.046;13.780;2023-04-25T02:11:11;6.05;;;4.32;;
63276;SDS011;49403;51.046;13.780;2023-04-25T02:11:45;8.10;;;4.65;;
63276;SDS011;49403;51.046;13.780;2023-04-25T02:12:17;6.28;;;4.28;;
63276;SDS011;49403;51.046;13.780;2023-04-25T02:12:48;7.22;;;4.30;;
63276;SDS011;49403;51.046;13.780;2023-04-25T02:13:22;7.45;;;4.40;;
63276;SDS011;49403;51.046;13.780;2023-04-25T02:13:56;8.80;;;4.60;;
63276;SDS011;49403;51.046;13.780;2023-04-25T02:14:28;8.75;;;4.65;;
63276;SDS011;49403;51.046;13.780;2023-04-25T02:15:02;6.70;;;4.68;;
63276;SDS011;49403;51.046;13.780;2023-04-25T02:15:38;5.28;;;4.35;;
63276;SDS011;49403;51.046;13.780;2023-04-25T02:16:12;8.52;;;4.47;;
63276;SDS011;49403;51.046;13.780;2023-04-25T02:16:43;6.55;;;4.65;;
63276;SDS011;49403;51.046;13.780;2023-04-25T02:17:18;6.32;;;4.35;;
63276;SDS011;49403;51.046;13.780;2023-04-25T02:17:49;10.00;;;4.90;;
63276;SDS011;49403;51.046;13.780;2023-04-25T02:18:22;8.63;;;4.50;;
63276;SDS011;49403;51.046;13.780;2023-04-25T02:18:56;8.63;;;4.38;;
63276;SDS011;49403;51.046;13.780;2023-04-25T02:19:30;8.70;;;4.38;;
63276;SDS011;49403;51.046;13.780;2023-04-25T02:20:02;8.30;;;4.28;;
63276;SDS011;49403;51.046;13.780;2023-04-25T02:21:18;8.02;;;4.53;;
63276;SDS011;49403;51.046;13.780;2023-04-25T02:21:52;6.25;;;4.43;;
63276;SDS011;49403;51.046;13.780;2023-04-25T02:22:26;6.30;;;4.63;;
63276;SDS011;49403;51.046;13.780;2023-04-25T02:23:00;6.95;;;4.45;;
63276;SDS011;49403;51.046;13.780;2023-04-25T02:23:32;5.32;;;4.20;;
63276;SDS011;49403;51.046;13.780;2023-04-25T02:24:07;5.93;;;4.35;;
63276;SDS011;49403;51.046;13.780;2023-04-25T02:24:39;6.57;;;4.47;;
63276;SDS011;49403;51.046;13.780;2023-04-25T02:25:13;10.77;;;4.63;;
63276;SDS011;49403;51.046;13.780;2023-04-25T02:25:46;8.80;;;4.22;;
63276;SDS011;49403;51.046;13.780;2023-04-25T02:26:17;10.55;;;4.53;;
63276;SDS011;49403;51.046;13.780;2023-04-25T02:26:48;8.65;;;4.70;;
63276;SDS011;49403;51.046;13.780;2023-04-25T02:27:22;8.07;;;4.68;;
63276;SDS011;49403;51.046;13.780;2023-04-25T02:27:54;6.47;;;4.57;;
63276;SDS011;49403;51.046;13.780;2023-04-25T02:28:26;8.35;;;4.57;;
63276;SDS011;49403;51.046;13.780;2023-04-25T02:29:00;8.02;;;4.70;;
63276;SDS011;49403;51.046;13.780;2023-04-25T02:29:31;7.38;;;4.22;;
63276;SDS011;49403;51.046;13.780;2023-04-25T02:30:06;10.45;;;4.57;;
63276;SDS011;49403;51.046;13.780;2023-04-25T02:30:38;7.40;;;4.70;;
63276;SDS011;49403;51.046;13.780;2023-04-25T02:31:12;5.90;;;4.20;;
63276;SDS011;49403;51.046;13.780;2023-04-25T02:31:47;9.60;;;4.75;;
63276;SDS011;49403;51.046;13.780;2023-04-25T02:32:18;6.40;;;4.10;;
63276;SDS011;49403;51.046;13.780;2023-04-25T02:32:52;6.70;;;4.68;;
63276;SDS011;49403;51.046;13.780;2023-04-25T02:33:24;10.73;;;4.63;;
63276;SDS011;49403;51.046;13.780;2023-04-25T02:33:58;7.20;;;4.70;;
63276;SDS011;49403;51.046;13.780;2023-04-25T02:34:29;7.63;;;4.55;;
63276;SDS011;49403;51.046;13.780;2023-04-25T02:35:03;6.55;;;4.53;;
63276;SDS011;49403;51.046;13.780;2023-04-25T02:35:38;8.90;;;4.90;;
63276;SDS011;49403;51.046;13.780;2023-04-25T02:36:09;7.65;;;4.70;;
63276;SDS011;49403;51.046;13.780;2023-04-25T02:36:40;9.77;;;4.82;;
63276;SDS011;49403;51.046;13.780;2023-04-25T02:37:11;7.15;;;4.63;;
63276;SDS011;49403;51.046;13.780;2023-04-25T02:37:48;9.65;;;4.60;;
63276;SDS011;49403;51.046;13.780;2023-04-25T02:38:19;6.57;;;4.80;;
63276;SDS011;49403;51.046;13.780;2023-04-25T02:38:51;8.50;;;4.95;;
63276;SDS011;49403;51.046;13.780;2023-04-25T02:39:22;6.90;;;4.75;;
63276;SDS011;49403;51.046;13.780;2023-04-25T02:39:55;6.68;;;4.63;;
63276;SDS011;49403;51.046;13.780;2023-04-25T02:40:26;9.43;;;4.35;;
63276;SDS011;49403;51.046;13.780;2023-04-25T02:41:03;6.57;;;4.80;;
63276;SDS011;49403;51.046;13.780;2023-04-25T02:41:34;10.35;;;4.72;;
63276;SDS011;49403;51.046;13.780;2023-04-25T02:42:06;5.82;;;4.50;;
63276;SDS011;49403;51.046;13.780;2023-04-25T02:42:37;8.45;;;4.68;;
63276;SDS011;49403;51.046;13.780;2023-04-25T02:43:08;11.13;;;4.85;;
63276;SDS011;49403;51.046;13.780;2023-04-25T02:43:40;8.27;;;4.93;;
63276;SDS011;49403;51.046;13.780;2023-04-25T02:44:11;8.02;;;4.90;;
63276;SDS011;49403;51.046;13.780;2023-04-25T02:44:42;9.52;;;4.93;;
63276;SDS011;49403;51.046;13.780;2023-04-25T02:45:16;6.25;;;4.90;;
63276;SDS011;49403;51.046;13.780;2023-04-25T02:45:47;8.15;;;4.90;;
63276;SDS011;49403;51.046;13.780;2023-04-25T02:46:21;7.05;;;4.60;;
63276;SDS011;49403;51.046;13.780;2023-04-25T02:46:53;9.95;;;5.75;;
63276;SDS011;49403;51.046;13.780;2023-04-25T02:47:24;7.03;;;4.63;;
63276;SDS011;49403;51.046;13.780;2023-04-25T02:47:58;6.93;;;4.68;;
63276;SDS011;49403;51.046;13.780;2023-04-25T02:48:29;10.10;;;4.97;;
63276;SDS011;49403;51.046;13.780;2023-04-25T02:49:01;7.85;;;5.13;;
63276;SDS011;49403;51.046;13.780;2023-04-25T02:49:35;9.40;;;4.70;;
63276;SDS011;49403;51.046;13.780;2023-04-25T02:50:06;7.32;;;4.50;;
63276;SDS011;49403;51.046;13.780;2023-04-25T02:50:38;8.25;;;4.85;;
63276;SDS011;49403;51.046;13.780;2023-04-25T02:51:09;8.43;;;4.68;;
63276;SDS011;49403;51.046;13.780;2023-04-25T02:51:41;9.77;;;5.13;;
63276;SDS011;49403;51.046;13.780;2023-04-25T02:52:12;7.88;;;5.00;;
63276;SDS011;49403;51.046;13.780;2023-04-25T02:52:43;8.90;;;5.00;;
63276;SDS011;49403;51.046;13.780;2023-04-25T02:53:17;6.93;;;4.85;;
63276;SDS011;49403;51.046;13.780;2023-04-25T02:53:49;9.23;;;5.10;;
63276;SDS011;49403;51.046;13.780;2023-04-25T02:54:20;8.30;;;4.90;;
63276;SDS011;49403;51.046;13.780;2023-04-25T02:54:52;7.63;;;4.80;;
63276;SDS011;49403;51.046;13.780;2023-04-25T02:55:23;7.82;;;4.78;;
63276;SDS011;49403;51.046;13.780;2023-04-25T02:55:54;8.52;;;5.10;;
63276;SDS011;49403;51.046;13.780;2023-04-25T02:56:28;9.05;;;4.90;;
63276;SDS011;49403;51.046;13.780;2023-04-25T02:56:59;7.10;;;4.72;;
63276;SDS011;49403;51.046;13.780;2023-04-25T02:57:32;9.32;;;5.10;;
63276;SDS011;49403;51.046;13.780;2023-04-25T02:58:04;12.10;;;4.57;;
63276;SDS011;49403;51.046;13.780;2023-04-25T02:58:35;8.68;;;4.95;;
63276;SDS011;49403;51.046;13.780;2023-04-25T02:59:09;9.80;;;5.28;;
63276;SDS011;49403;51.046;13.780;2023-04-25T02:59:41;11.15;;;4.57;;
63276;SDS011;49403;51.046;13.780;2023-04-25T03:00:12;7.03;;;5.13;;
63276;SDS011;49403;51.046;13.780;2023-04-25T03:00:44;7.53;;;4.90;;
63276;SDS011;49403;51.046;13.780;2023-04-25T03:01:15;7.93;;;4.88;;
63276;SDS011;49403;51.046;13.780;2023-04-25T03:01:46;10.45;;;5.15;;
63276;SDS011;49403;51.046;13.780;2023-04-25T03:02:18;8.73;;;4.97;;
63276;SDS011;49403;51.046;13.780;2023-04-25T03:02:49;7.40;;;5.07;;
63276;SDS011;49403;51.046;13.780;2023-04-25T03:03:21;7.18;;;4.80;;
63276;SDS011;49403;51.046;13.780;2023-04-25T03:03:52;9.10;;;5.00;;
63276;SDS011;49403;51.046;13.780;2023-04-25T03:04:23;8.55;;;4.90;;
63276;SDS011;49403;51.046;13.780;2023-04-25T03:04:55;7.28;;;4.80;;
63276;SDS011;49403;51.046;13.780;2023-04-25T03:05:26;11.30;;;5.22;;
63276;SDS011;49403;51.046;13.780;2023-04-25T03:05:57;8.10;;;4.93;;
63276;SDS011;49403;51.046;13.780;2023-04-25T03:06:28;7.30;;;4.90;;
63276;SDS011;49403;51.046;13.780;2023-04-25T03:06:59;6.97;;;5.00;;
63276;SDS011;49403;51.046;13.780;2023-04-25T03:07:31;8.55;;;5.05;;
63276;SDS011;49403;51.046;13.780;2023-04-25T03:08:02;7.80;;;4.80;;
63276;SDS011;49403;51.046;13.780;2023-04-25T03:08:33;7.20;;;5.00;;
63276;SDS011;49403;51.046;13.780;2023-04-25T03:09:05;7.88;;;4.97;;
63276;SDS011;49403;51.046;13.780;2023-04-25T03:09:36;10.73;;;4.93;;
63276;SDS011;49403;51.046;13.780;2023-04-25T03:10:07;8.45;;;5.10;;
63276;SDS011;49403;51.046;13.780;2023-04-25T03:10:39;11.05;;;5.15;;
63276;SDS011;49403;51.046;13.780;2023-04-25T03:11:10;12.38;;;5.47;;
63276;SDS011;49403;51.046;13.780;2023-04-25T03:11:41;10.65;;;5.03;;